sensor_id;sensor_type;location;lat;lon;timestamp;P1;durP1;ratioP1;P2;durP2;ratioP2
19038;SDS011;9652;49.014;12.052;2023-01-01T00:01:56;167.63;;;99.50;;
19038;SDS011;9652;49.014;12.052;2023-01-01T00:04:24;136.30;;;82.17;;
19038;SDS011;9652;49.014;12.052;2023-01-01T00:06:53;121.67;;;68.20;;
19038;SDS011;9652;49.014;12.052;2023-01-01T00:09:20;98.53;;;58.33;;
19038;SDS011;9652;49.014;12.052;2023-01-01T00:12:05;85.47;;;49.70;;
19038;SDS011;9652;49.014;12.052;2023-01-01T00:14:32;72.63;;;44.40;;
19038;SDS011;9652;49.014;12.052;2023-01-01T00:16:59;63.13;;;38.83;;
19038;SDS011;9652;49.014;12.052;2023-01-01T00:19:26;67.57;;;43.47;;
19038;SDS011;9652;49.014;12.052;2023-01-01T00:21:55;64.63;;;40.07;;
19038;SDS011;9652;49.014;12.052;2023-01-01T00:24:22;87.77;;;49.87;;
19038;SDS011;9652;49.014;12.052;2023-01-01T00:26:49;65.70;;;41.50;;
19038;SDS011;9652;49.014;12.052;2023-01-01T00:29:16;73.17;;;45.17;;
19038;SDS011;9652;49.014;12.052;2023-01-01T00:31:43;92.53;;;54.40;;
19038;SDS011;9652;49.014;12.052;2023-01-01T00:34:10;88.43;;;55.77;;
19038;SDS011;9652;49.014;12.052;2023-01-01T00:36:39;79.50;;;48.17;;
19038;SDS011;9652;49.014;12.052;2023-01-01T00:39:07;62.40;;;39.67;;
19038;SDS011;9652;49.014;12.052;2023-01-01T00:41:34;62.07;;;38.27;;
19038;SDS011;9652;49.014;12.052;2023-01-01T00:44:01;51.50;;;34.23;;
19038;SDS011;9652;49.014;12.052;2023-01-01T00:46:28;44.60;;;28.53;;
19038;SDS011;9652;49.014;12.052;2023-01-01T00:48:55;43.17;;;28.53;;
19038;SDS011;9652;49.014;12.052;2023-01-01T00:51:22;41.87;;;26.60;;
19038;SDS011;9652;49.014;12.052;2023-01-01T00:53:49;48.43;;;28.13;;
19038;SDS011;9652;49.014;12.052;2023-01-01T00:56:17;44.10;;;27.67;;
19038;SDS011;9652;49.014;12.052;2023-01-01T00:58:44;43.23;;;26.57;;
19038;SDS011;9652;49.014;12.052;2023-01-01T01:01:11;35.53;;;22.60;;
19038;SDS011;9652;49.014;12.052;2023-01-01T01:03:38;36.87;;;21.20;;
19038;SDS011;9652;49.014;12.052;2023-01-01T01:06:07;34.23;;;21.03;;
19038;SDS011;9652;49.014;12.052;2023-01-01T01:08:38;30.77;;;19.10;;
19038;SDS011;9652;49.014;12.052;2023-01-01T01:11:07;31.63;;;19.73;;
19038;SDS011;9652;49.014;12.052;2023-01-01T01:13:40;30.53;;;18.97;;
19038;SDS011;9652;49.014;12.052;2023-01-01T01:16:09;23.57;;;15.70;;
19038;SDS011;9652;49.014;12.052;2023-01-01T01:18:38;32.50;;;19.87;;
19038;SDS011;9652;49.014;12.052;2023-01-01T01:21:05;26.17;;;16.97;;
19038;SDS011;9652;49.014;12.052;2023-01-01T01:23:33;31.67;;;18.37;;
19038;SDS011;9652;49.014;12.052;2023-01-01T01:26:07;40.43;;;25.77;;
19038;SDS011;9652;49.014;12.052;2023-01-01T01:28:36;48.43;;;29.60;;
19038;SDS011;9652;49.014;12.052;2023-01-01T01:31:05;43.20;;;27.57;;
19038;SDS011;9652;49.014;12.052;2023-01-01T01:33:33;50.87;;;29.13;;
19038;SDS011;9652;49.014;12.052;2023-01-01T01:36:00;45.27;;;30.20;;
19038;SDS011;9652;49.014;12.052;2023-01-01T01:38:28;41.67;;;26.93;;
19038;SDS011;9652;49.014;12.052;2023-01-01T01:40:55;46.67;;;28.40;;
19038;SDS011;9652;49.014;12.052;2023-01-01T01:43:23;42.37;;;27.20;;
19038;SDS011;9652;49.014;12.052;2023-01-01T01:46:14;42.70;;;28.53;;
19038;SDS011;9652;49.014;12.052;2023-01-01T01:48:47;35.53;;;22.47;;
19038;SDS011;9652;49.014;12.052;2023-01-01T01:51:17;34.33;;;22.37;;
19038;SDS011;9652;49.014;12.052;2023-01-01T01:53:50;34.70;;;21.63;;
19038;SDS011;9652;49.014;12.052;2023-01-01T01:56:23;35.87;;;22.90;;
19038;SDS011;9652;49.014;12.052;2023-01-01T01:58:59;35.40;;;21.67;;
19038;SDS011;9652;49.014;12.052;2023-01-01T02:01:27;34.00;;;22.13;;
19038;SDS011;9652;49.014;12.052;2023-01-01T02:03:56;33.90;;;22.53;;
19038;SDS011;9652;49.014;12.052;2023-01-01T02:06:25;33.70;;;22.27;;
19038;SDS011;9652;49.014;12.052;2023-01-01T02:08:56;32.80;;;22.23;;
19038;SDS011;9652;49.014;12.052;2023-01-01T02:11:28;35.63;;;22.73;;
19038;SDS011;9652;49.014;12.052;2023-01-01T02:13:55;38.17;;;24.20;;
19038;SDS011;9652;49.014;12.052;2023-01-01T02:16:28;32.60;;;22.10;;
19038;SDS011;9652;49.014;12.052;2023-01-01T02:19:05;30.77;;;20.20;;
19038;SDS011;9652;49.014;12.052;2023-01-01T02:21:46;34.47;;;22.33;;
19038;SDS011;9652;49.014;12.052;2023-01-01T02:24:33;29.77;;;20.43;;
19038;SDS011;9652;49.014;12.052;2023-01-01T02:27:16;33.60;;;21.43;;
19038;SDS011;9652;49.014;12.052;2023-01-01T02:29:59;33.13;;;20.33;;
19038;SDS011;9652;49.014;12.052;2023-01-01T02:32:31;33.63;;;22.50;;
19038;SDS011;9652;49.014;12.052;2023-01-01T02:35:07;30.73;;;20.27;;
19038;SDS011;9652;49.014;12.052;2023-01-01T02:37:58;28.80;;;19.53;;
19038;SDS011;9652;49.014;12.052;2023-01-01T02:40:32;29.90;;;18.87;;
19038;SDS011;9652;49.014;12.052;2023-01-01T02:43:05;29.00;;;20.20;;
19038;SDS011;9652;49.014;12.052;2023-01-01T02:45:34;31.07;;;19.60;;
19038;SDS011;9652;49.014;12.052;2023-01-01T02:48:02;30.83;;;17.93;;
19038;SDS011;9652;49.014;12.052;2023-01-01T02:50:30;30.67;;;18.50;;
19038;SDS011;9652;49.014;12.052;2023-01-01T02:53:02;29.37;;;19.10;;
19038;SDS011;9652;49.014;12.052;2023-01-01T02:55:51;27.53;;;18.00;;
19038;SDS011;9652;49.014;12.052;2023-01-01T02:58:29;27.47;;;18.90;;
19038;SDS011;9652;49.014;12.052;2023-01-01T03:01:26;27.03;;;16.60;;
19038;SDS011;9652;49.014;12.052;2023-01-01T03:04:03;24.90;;;15.97;;
19038;SDS011;9652;49.014;12.052;2023-01-01T03:06:48;23.20;;;15.33;;
19038;SDS011;9652;49.014;12.052;2023-01-01T03:09:26;22.70;;;14.87;;
19038;SDS011;9652;49.014;12.052;2023-01-01T03:12:08;23.43;;;15.77;;
19038;SDS011;9652;49.014;12.052;2023-01-01T03:15:06;25.00;;;15.47;;
19038;SDS011;9652;49.014;12.052;2023-01-01T03:17:46;24.20;;;15.77;;
19038;SDS011;9652;49.014;12.052;2023-01-01T03:20:23;24.30;;;15.60;;
19038;SDS011;9652;49.014;12.052;2023-01-01T03:22:57;23.33;;;17.30;;
19038;SDS011;9652;49.014;12.052;2023-01-01T03:25:32;25.47;;;17.27;;
19038;SDS011;9652;49.014;12.052;2023-01-01T03:28:06;26.07;;;17.43;;
19038;SDS011;9652;49.014;12.052;2023-01-01T03:30:39;25.80;;;18.17;;
19038;SDS011;9652;49.014;12.052;2023-01-01T03:33:12;25.57;;;18.47;;
19038;SDS011;9652;49.014;12.052;2023-01-01T03:35:45;25.30;;;17.83;;
19038;SDS011;9652;49.014;12.052;2023-01-01T03:38:18;30.53;;;18.73;;
19038;SDS011;9652;49.014;12.052;2023-01-01T03:40:52;30.73;;;19.83;;
19038;SDS011;9652;49.014;12.052;2023-01-01T03:43:27;31.03;;;19.33;;
19038;SDS011;9652;49.014;12.052;2023-01-01T03:46:04;25.97;;;17.97;;
19038;SDS011;9652;49.014;12.052;2023-01-01T03:48:36;35.37;;;20.47;;
19038;SDS011;9652;49.014;12.052;2023-01-01T03:51:19;30.03;;;18.27;;
19038;SDS011;9652;49.014;12.052;2023-01-01T03:53:58;26.23;;;17.63;;
19038;SDS011;9652;49.014;12.052;2023-01-01T03:56:34;26.20;;;17.37;;
19038;SDS011;9652;49.014;12.052;2023-01-01T03:59:10;33.23;;;19.53;;
19038;SDS011;9652;49.014;12.052;2023-01-01T04:01:42;32.60;;;19.27;;
19038;SDS011;9652;49.014;12.052;2023-01-01T04:04:16;29.97;;;18.97;;
19038;SDS011;9652;49.014;12.052;2023-01-01T04:06:44;28.97;;;19.57;;
19038;SDS011;9652;49.014;12.052;2023-01-01T04:09:12;34.47;;;20.87;;
19038;SDS011;9652;49.014;12.052;2023-01-01T04:11:45;32.60;;;19.70;;
19038;SDS011;9652;49.014;12.052;2023-01-01T04:14:30;33.80;;;21.27;;
19038;SDS011;9652;49.014;12.052;2023-01-01T04:17:00;32.70;;;21.47;;
19038;SDS011;9652;49.014;12.052;2023-01-01T04:19:30;30.30;;;19.93;;
19038;SDS011;9652;49.014;12.052;2023-01-01T04:21:58;29.63;;;18.57;;
19038;SDS011;9652;49.014;12.052;2023-01-01T04:24:26;32.30;;;20.07;;
19038;SDS011;9652;49.014;12.052;2023-01-01T04:26:53;31.23;;;18.70;;
19038;SDS011;9652;49.014;12.052;2023-01-01T04:29:21;29.93;;;18.83;;
19038;SDS011;9652;49.014;12.052;2023-01-01T04:31:48;28.73;;;20.00;;
19038;SDS011;9652;49.014;12.052;2023-01-01T04:34:16;29.50;;;19.47;;
19038;SDS011;9652;49.014;12.052;2023-01-01T04:36:44;33.50;;;21.03;;
19038;SDS011;9652;49.014;12.052;2023-01-01T04:39:12;33.37;;;20.93;;
19038;SDS011;9652;49.014;12.052;2023-01-01T04:41:39;27.63;;;17.27;;
19038;SDS011;9652;49.014;12.052;2023-01-01T04:44:06;28.27;;;19.03;;
19038;SDS011;9652;49.014;12.052;2023-01-01T04:46:33;31.37;;;20.57;;
19038;SDS011;9652;49.014;12.052;2023-01-01T04:49:00;30.60;;;19.37;;
19038;SDS011;9652;49.014;12.052;2023-01-01T04:51:27;31.53;;;19.03;;
19038;SDS011;9652;49.014;12.052;2023-01-01T04:53:55;30.10;;;19.37;;
19038;SDS011;9652;49.014;12.052;2023-01-01T04:56:26;27.50;;;18.40;;
19038;SDS011;9652;49.014;12.052;2023-01-01T04:58:53;27.50;;;18.77;;
19038;SDS011;9652;49.014;12.052;2023-01-01T05:01:23;28.07;;;18.93;;
19038;SDS011;9652;49.014;12.052;2023-01-01T05:03:52;26.53;;;19.53;;
19038;SDS011;9652;49.014;12.052;2023-01-01T05:06:21;33.43;;;20.43;;
19038;SDS011;9652;49.014;12.052;2023-01-01T05:08:49;31.30;;;19.80;;
19038;SDS011;9652;49.014;12.052;2023-01-01T05:11:21;29.83;;;19.33;;
19038;SDS011;9652;49.014;12.052;2023-01-01T05:13:52;29.27;;;19.07;;
19038;SDS011;9652;49.014;12.052;2023-01-01T05:16:22;29.30;;;18.93;;
19038;SDS011;9652;49.014;12.052;2023-01-01T05:18:52;28.20;;;17.87;;
19038;SDS011;9652;49.014;12.052;2023-01-01T05:21:20;27.50;;;18.53;;
19038;SDS011;9652;49.014;12.052;2023-01-01T05:23:52;28.07;;;18.60;;
19038;SDS011;9652;49.014;12.052;2023-01-01T05:26:22;29.87;;;19.83;;
19038;SDS011;9652;49.014;12.052;2023-01-01T05:28:53;27.00;;;19.17;;
19038;SDS011;9652;49.014;12.052;2023-01-01T05:31:21;31.20;;;19.50;;
19038;SDS011;9652;49.014;12.052;2023-01-01T05:33:50;28.63;;;18.13;;
19038;SDS011;9652;49.014;12.052;2023-01-01T05:36:19;25.33;;;17.43;;
19038;SDS011;9652;49.014;12.052;2023-01-01T05:38:49;28.70;;;19.00;;
19038;SDS011;9652;49.014;12.052;2023-01-01T05:41:18;30.53;;;20.40;;
19038;SDS011;9652;49.014;12.052;2023-01-01T05:43:48;30.27;;;20.50;;
19038;SDS011;9652;49.014;12.052;2023-01-01T05:46:17;32.07;;;21.47;;
19038;SDS011;9652;49.014;12.052;2023-01-01T05:48:47;32.47;;;21.97;;
19038;SDS011;9652;49.014;12.052;2023-01-01T05:51:15;29.43;;;20.80;;
19038;SDS011;9652;49.014;12.052;2023-01-01T05:53:45;34.37;;;21.23;;
19038;SDS011;9652;49.014;12.052;2023-01-01T05:56:12;28.30;;;19.00;;
19038;SDS011;9652;49.014;12.052;2023-01-01T05:58:42;29.20;;;19.23;;
19038;SDS011;9652;49.014;12.052;2023-01-01T06:01:11;30.10;;;20.03;;
19038;SDS011;9652;49.014;12.052;2023-01-01T06:03:41;26.93;;;18.47;;
19038;SDS011;9652;49.014;12.052;2023-01-01T06:06:09;29.20;;;19.47;;
19038;SDS011;9652;49.014;12.052;2023-01-01T06:08:39;29.77;;;19.83;;
19038;SDS011;9652;49.014;12.052;2023-01-01T06:11:07;29.13;;;20.30;;
19038;SDS011;9652;49.014;12.052;2023-01-01T06:13:37;32.13;;;21.87;;
19038;SDS011;9652;49.014;12.052;2023-01-01T06:16:06;30.10;;;18.77;;
19038;SDS011;9652;49.014;12.052;2023-01-01T06:18:34;28.93;;;19.27;;
19038;SDS011;9652;49.014;12.052;2023-01-01T06:21:02;33.00;;;21.60;;
19038;SDS011;9652;49.014;12.052;2023-01-01T06:23:31;31.80;;;19.17;;
19038;SDS011;9652;49.014;12.052;2023-01-01T06:26:03;33.70;;;21.70;;
19038;SDS011;9652;49.014;12.052;2023-01-01T06:28:35;32.87;;;20.87;;
19038;SDS011;9652;49.014;12.052;2023-01-01T06:31:03;34.67;;;22.77;;
19038;SDS011;9652;49.014;12.052;2023-01-01T06:33:35;34.73;;;21.50;;
19038;SDS011;9652;49.014;12.052;2023-01-01T06:36:03;35.07;;;21.30;;
19038;SDS011;9652;49.014;12.052;2023-01-01T06:38:34;36.73;;;21.20;;
19038;SDS011;9652;49.014;12.052;2023-01-01T06:41:03;35.37;;;20.87;;
19038;SDS011;9652;49.014;12.052;2023-01-01T06:43:33;30.87;;;19.60;;
19038;SDS011;9652;49.014;12.052;2023-01-01T06:46:01;35.83;;;21.37;;
19038;SDS011;9652;49.014;12.052;2023-01-01T06:48:33;35.23;;;21.63;;
19038;SDS011;9652;49.014;12.052;2023-01-01T06:51:04;28.20;;;18.70;;
19038;SDS011;9652;49.014;12.052;2023-01-01T06:53:33;32.83;;;19.43;;
19038;SDS011;9652;49.014;12.052;2023-01-01T06:56:01;29.07;;;17.77;;
19038;SDS011;9652;49.014;12.052;2023-01-01T06:58:28;29.07;;;18.47;;
19038;SDS011;9652;49.014;12.052;2023-01-01T07:01:01;31.17;;;18.20;;
19038;SDS011;9652;49.014;12.052;2023-01-01T07:03:31;27.97;;;17.53;;
19038;SDS011;9652;49.014;12.052;2023-01-01T07:05:59;31.40;;;18.97;;
19038;SDS011;9652;49.014;12.052;2023-01-01T07:08:26;32.70;;;19.87;;
19038;SDS011;9652;49.014;12.052;2023-01-01T07:10:53;30.47;;;19.83;;
19038;SDS011;9652;49.014;12.052;2023-01-01T07:13:21;30.73;;;19.83;;
19038;SDS011;9652;49.014;12.052;2023-01-01T07:15:49;28.30;;;17.10;;
19038;SDS011;9652;49.014;12.052;2023-01-01T07:18:16;26.80;;;17.10;;
19038;SDS011;9652;49.014;12.052;2023-01-01T07:20:48;29.00;;;18.43;;
19038;SDS011;9652;49.014;12.052;2023-01-01T07:23:17;23.13;;;15.97;;
19038;SDS011;9652;49.014;12.052;2023-01-01T07:25:44;29.60;;;18.83;;
19038;SDS011;9652;49.014;12.052;2023-01-01T07:28:11;26.63;;;16.90;;
19038;SDS011;9652;49.014;12.052;2023-01-01T07:30:38;26.23;;;17.77;;
19038;SDS011;9652;49.014;12.052;2023-01-01T07:33:07;28.30;;;17.57;;
19038;SDS011;9652;49.014;12.052;2023-01-01T07:35:36;27.10;;;17.73;;
19038;SDS011;9652;49.014;12.052;2023-01-01T07:38:07;27.87;;;18.00;;
19038;SDS011;9652;49.014;12.052;2023-01-01T07:40:34;28.20;;;17.47;;
19038;SDS011;9652;49.014;12.052;2023-01-01T07:43:01;27.80;;;18.60;;
19038;SDS011;9652;49.014;12.052;2023-01-01T07:45:28;27.33;;;18.77;;
19038;SDS011;9652;49.014;12.052;2023-01-01T07:47:56;27.57;;;18.93;;
19038;SDS011;9652;49.014;12.052;2023-01-01T07:50:26;26.40;;;16.93;;
19038;SDS011;9652;49.014;12.052;2023-01-01T07:52:57;26.93;;;17.07;;
19038;SDS011;9652;49.014;12.052;2023-01-01T07:55:26;23.87;;;16.93;;
19038;SDS011;9652;49.014;12.052;2023-01-01T07:57:53;25.17;;;15.87;;
19038;SDS011;9652;49.014;12.052;2023-01-01T08:00:20;30.83;;;18.63;;
19038;SDS011;9652;49.014;12.052;2023-01-01T08:02:47;28.87;;;17.53;;
19038;SDS011;9652;49.014;12.052;2023-01-01T08:05:15;26.20;;;17.93;;
19038;SDS011;9652;49.014;12.052;2023-01-01T08:07:44;26.83;;;16.07;;
19038;SDS011;9652;49.014;12.052;2023-01-01T08:10:13;28.33;;;16.93;;
19038;SDS011;9652;49.014;12.052;2023-01-01T08:12:43;27.47;;;17.30;;
19038;SDS011;9652;49.014;12.052;2023-01-01T08:15:10;29.53;;;19.23;;
19038;SDS011;9652;49.014;12.052;2023-01-01T08:17:38;24.93;;;15.07;;
19038;SDS011;9652;49.014;12.052;2023-01-01T08:20:06;25.83;;;17.27;;
19038;SDS011;9652;49.014;12.052;2023-01-01T08:22:35;30.07;;;15.93;;
19038;SDS011;9652;49.014;12.052;2023-01-01T08:25:02;27.20;;;16.40;;
19038;SDS011;9652;49.014;12.052;2023-01-01T08:27:30;21.60;;;16.20;;
19038;SDS011;9652;49.014;12.052;2023-01-01T08:29:58;23.50;;;15.43;;
19038;SDS011;9652;49.014;12.052;2023-01-01T08:32:25;22.00;;;13.80;;
19038;SDS011;9652;49.014;12.052;2023-01-01T08:34:52;24.30;;;16.33;;
19038;SDS011;9652;49.014;12.052;2023-01-01T08:37:20;24.70;;;15.13;;
19038;SDS011;9652;49.014;12.052;2023-01-01T08:39:49;22.90;;;16.13;;
19038;SDS011;9652;49.014;12.052;2023-01-01T08:42:17;22.73;;;16.63;;
19038;SDS011;9652;49.014;12.052;2023-01-01T08:44:44;24.27;;;17.43;;
19038;SDS011;9652;49.014;12.052;2023-01-01T08:47:16;24.47;;;17.37;;
19038;SDS011;9652;49.014;12.052;2023-01-01T08:49:45;23.53;;;15.97;;
19038;SDS011;9652;49.014;12.052;2023-01-01T08:52:12;25.63;;;17.53;;
19038;SDS011;9652;49.014;12.052;2023-01-01T08:54:40;25.57;;;16.30;;
19038;SDS011;9652;49.014;12.052;2023-01-01T08:57:07;26.30;;;16.60;;
19038;SDS011;9652;49.014;12.052;2023-01-01T08:59:34;23.87;;;16.63;;
19038;SDS011;9652;49.014;12.052;2023-01-01T09:02:01;27.30;;;17.17;;
19038;SDS011;9652;49.014;12.052;2023-01-01T09:04:30;27.00;;;17.60;;
19038;SDS011;9652;49.014;12.052;2023-01-01T09:06:57;29.27;;;18.67;;
19038;SDS011;9652;49.014;12.052;2023-01-01T09:09:24;26.40;;;17.23;;
19038;SDS011;9652;49.014;12.052;2023-01-01T09:11:52;27.23;;;17.33;;
19038;SDS011;9652;49.014;12.052;2023-01-01T09:14:23;32.03;;;18.73;;
19038;SDS011;9652;49.014;12.052;2023-01-01T09:16:50;26.13;;;16.43;;
19038;SDS011;9652;49.014;12.052;2023-01-01T09:19:17;24.33;;;16.77;;
19038;SDS011;9652;49.014;12.052;2023-01-01T09:21:45;28.67;;;17.53;;
19038;SDS011;9652;49.014;12.052;2023-01-01T09:24:12;27.03;;;17.70;;
19038;SDS011;9652;49.014;12.052;2023-01-01T09:26:39;24.77;;;16.07;;
19038;SDS011;9652;49.014;12.052;2023-01-01T09:29:06;34.83;;;18.23;;
19038;SDS011;9652;49.014;12.052;2023-01-01T09:31:33;26.93;;;16.43;;
19038;SDS011;9652;49.014;12.052;2023-01-01T09:34:00;29.10;;;18.27;;
19038;SDS011;9652;49.014;12.052;2023-01-01T09:36:28;26.77;;;16.90;;
19038;SDS011;9652;49.014;12.052;2023-01-01T09:38:58;25.07;;;17.20;;
19038;SDS011;9652;49.014;12.052;2023-01-01T09:41:33;31.73;;;18.27;;
19038;SDS011;9652;49.014;12.052;2023-01-01T09:44:16;27.40;;;17.73;;
19038;SDS011;9652;49.014;12.052;2023-01-01T09:47:03;25.57;;;16.37;;
19038;SDS011;9652;49.014;12.052;2023-01-01T09:49:43;24.53;;;15.33;;
19038;SDS011;9652;49.014;12.052;2023-01-01T09:52:15;23.27;;;15.83;;
19038;SDS011;9652;49.014;12.052;2023-01-01T09:54:46;26.43;;;17.10;;
19038;SDS011;9652;49.014;12.052;2023-01-01T09:57:20;26.60;;;16.33;;
19038;SDS011;9652;49.014;12.052;2023-01-01T09:59:55;25.70;;;15.93;;
19038;SDS011;9652;49.014;12.052;2023-01-01T10:02:34;27.07;;;16.87;;
19038;SDS011;9652;49.014;12.052;2023-01-01T10:05:18;23.13;;;15.53;;
19038;SDS011;9652;49.014;12.052;2023-01-01T10:07:59;24.30;;;15.47;;
19038;SDS011;9652;49.014;12.052;2023-01-01T10:10:37;23.63;;;14.97;;
19038;SDS011;9652;49.014;12.052;2023-01-01T10:13:10;25.13;;;15.33;;
19038;SDS011;9652;49.014;12.052;2023-01-01T10:15:49;22.27;;;14.83;;
19038;SDS011;9652;49.014;12.052;2023-01-01T10:18:24;23.83;;;14.40;;
19038;SDS011;9652;49.014;12.052;2023-01-01T10:20:58;24.00;;;16.17;;
19038;SDS011;9652;49.014;12.052;2023-01-01T10:23:34;27.93;;;16.50;;
19038;SDS011;9652;49.014;12.052;2023-01-01T10:26:11;22.97;;;14.30;;
19038;SDS011;9652;49.014;12.052;2023-01-01T10:28:44;27.50;;;15.10;;
19038;SDS011;9652;49.014;12.052;2023-01-01T10:31:24;27.07;;;16.70;;
19038;SDS011;9652;49.014;12.052;2023-01-01T10:33:57;23.17;;;16.40;;
19038;SDS011;9652;49.014;12.052;2023-01-01T10:36:29;25.53;;;16.10;;
19038;SDS011;9652;49.014;12.052;2023-01-01T10:38:56;26.43;;;16.37;;
19038;SDS011;9652;49.014;12.052;2023-01-01T10:41:24;27.20;;;16.87;;
19038;SDS011;9652;49.014;12.052;2023-01-01T10:43:51;26.00;;;17.13;;
19038;SDS011;9652;49.014;12.052;2023-01-01T10:46:21;26.13;;;15.70;;
19038;SDS011;9652;49.014;12.052;2023-01-01T10:49:02;23.87;;;15.50;;
19038;SDS011;9652;49.014;12.052;2023-01-01T10:51:34;25.63;;;17.00;;
19038;SDS011;9652;49.014;12.052;2023-01-01T10:54:14;27.63;;;16.13;;
19038;SDS011;9652;49.014;12.052;2023-01-01T10:57:00;26.73;;;16.27;;
19038;SDS011;9652;49.014;12.052;2023-01-01T10:59:41;27.53;;;16.53;;
19038;SDS011;9652;49.014;12.052;2023-01-01T11:02:14;26.53;;;16.13;;
19038;SDS011;9652;49.014;12.052;2023-01-01T11:04:45;26.33;;;15.13;;
19038;SDS011;9652;49.014;12.052;2023-01-01T11:07:17;28.13;;;16.03;;
19038;SDS011;9652;49.014;12.052;2023-01-01T11:09:54;23.33;;;14.77;;
19038;SDS011;9652;49.014;12.052;2023-01-01T11:12:29;24.53;;;15.77;;
19038;SDS011;9652;49.014;12.052;2023-01-01T11:15:01;23.10;;;15.23;;
19038;SDS011;9652;49.014;12.052;2023-01-01T11:17:30;26.97;;;15.83;;
19038;SDS011;9652;49.014;12.052;2023-01-01T11:20:00;24.83;;;16.30;;
19038;SDS011;9652;49.014;12.052;2023-01-01T11:22:35;25.77;;;16.10;;
19038;SDS011;9652;49.014;12.052;2023-01-01T11:25:15;24.33;;;15.83;;
19038;SDS011;9652;49.014;12.052;2023-01-01T11:27:48;30.20;;;16.30;;
19038;SDS011;9652;49.014;12.052;2023-01-01T11:30:20;26.67;;;15.03;;
19038;SDS011;9652;49.014;12.052;2023-01-01T11:32:52;21.00;;;14.83;;
19038;SDS011;9652;49.014;12.052;2023-01-01T11:35:24;23.40;;;14.87;;
19038;SDS011;9652;49.014;12.052;2023-01-01T11:37:55;24.17;;;15.47;;
19038;SDS011;9652;49.014;12.052;2023-01-01T11:40:26;23.10;;;14.87;;
19038;SDS011;9652;49.014;12.052;2023-01-01T11:43:04;24.23;;;14.80;;
19038;SDS011;9652;49.014;12.052;2023-01-01T11:45:32;22.23;;;14.67;;
19038;SDS011;9652;49.014;12.052;2023-01-01T11:48:10;23.17;;;14.60;;
19038;SDS011;9652;49.014;12.052;2023-01-01T11:50:47;23.37;;;15.27;;
19038;SDS011;9652;49.014;12.052;2023-01-01T11:53:18;26.73;;;15.20;;
19038;SDS011;9652;49.014;12.052;2023-01-01T11:55:56;24.47;;;15.03;;
19038;SDS011;9652;49.014;12.052;2023-01-01T11:58:36;22.40;;;13.93;;
19038;SDS011;9652;49.014;12.052;2023-01-01T12:01:12;23.53;;;15.40;;
19038;SDS011;9652;49.014;12.052;2023-01-01T12:03:50;22.87;;;13.87;;
19038;SDS011;9652;49.014;12.052;2023-01-01T12:06:23;23.20;;;14.60;;
19038;SDS011;9652;49.014;12.052;2023-01-01T12:08:58;21.57;;;14.37;;
19038;SDS011;9652;49.014;12.052;2023-01-01T12:11:36;21.03;;;13.90;;
19038;SDS011;9652;49.014;12.052;2023-01-01T12:14:15;24.77;;;13.63;;
19038;SDS011;9652;49.014;12.052;2023-01-01T12:16:51;22.63;;;13.97;;
19038;SDS011;9652;49.014;12.052;2023-01-01T12:19:27;24.87;;;14.03;;
19038;SDS011;9652;49.014;12.052;2023-01-01T12:22:01;21.47;;;13.00;;
19038;SDS011;9652;49.014;12.052;2023-01-01T12:24:34;20.13;;;13.17;;
19038;SDS011;9652;49.014;12.052;2023-01-01T12:27:06;20.20;;;12.90;;
19038;SDS011;9652;49.014;12.052;2023-01-01T12:29:49;20.50;;;13.20;;
19038;SDS011;9652;49.014;12.052;2023-01-01T12:32:33;22.37;;;13.97;;
19038;SDS011;9652;49.014;12.052;2023-01-01T12:35:20;20.50;;;13.13;;
19038;SDS011;9652;49.014;12.052;2023-01-01T12:38:04;19.13;;;12.50;;
19038;SDS011;9652;49.014;12.052;2023-01-01T12:40:48;19.37;;;12.77;;
19038;SDS011;9652;49.014;12.052;2023-01-01T12:43:32;24.03;;;13.27;;
19038;SDS011;9652;49.014;12.052;2023-01-01T12:46:16;23.03;;;13.67;;
19038;SDS011;9652;49.014;12.052;2023-01-01T12:49:19;20.83;;;13.17;;
19038;SDS011;9652;49.014;12.052;2023-01-01T12:52:18;17.93;;;12.53;;
19038;SDS011;9652;49.014;12.052;2023-01-01T12:55:21;18.30;;;11.73;;
19038;SDS011;9652;49.014;12.052;2023-01-01T12:58:13;19.93;;;12.37;;
19038;SDS011;9652;49.014;12.052;2023-01-01T13:00:53;21.37;;;13.30;;
19038;SDS011;9652;49.014;12.052;2023-01-01T13:03:26;19.87;;;12.77;;
19038;SDS011;9652;49.014;12.052;2023-01-01T13:05:59;19.83;;;12.47;;
19038;SDS011;9652;49.014;12.052;2023-01-01T13:08:28;20.63;;;13.33;;
19038;SDS011;9652;49.014;12.052;2023-01-01T13:10:58;21.80;;;13.10;;
19038;SDS011;9652;49.014;12.052;2023-01-01T13:13:27;18.60;;;12.87;;
19038;SDS011;9652;49.014;12.052;2023-01-01T13:15:54;19.97;;;12.97;;
19038;SDS011;9652;49.014;12.052;2023-01-01T13:18:23;19.87;;;13.13;;
19038;SDS011;9652;49.014;12.052;2023-01-01T13:21:00;18.87;;;13.50;;
19038;SDS011;9652;49.014;12.052;2023-01-01T13:23:41;22.10;;;12.70;;
19038;SDS011;9652;49.014;12.052;2023-01-01T13:26:32;19.07;;;12.43;;
19038;SDS011;9652;49.014;12.052;2023-01-01T13:32:03;17.67;;;11.97;;
19038;SDS011;9652;49.014;12.052;2023-01-01T13:34:35;17.93;;;11.83;;
19038;SDS011;9652;49.014;12.052;2023-01-01T13:37:29;20.17;;;12.57;;
19038;SDS011;9652;49.014;12.052;2023-01-01T13:40:29;17.37;;;11.73;;
19038;SDS011;9652;49.014;12.052;2023-01-01T13:43:24;15.67;;;11.20;;
19038;SDS011;9652;49.014;12.052;2023-01-01T13:45:54;18.73;;;11.43;;
19038;SDS011;9652;49.014;12.052;2023-01-01T13:48:33;17.53;;;11.57;;
19038;SDS011;9652;49.014;12.052;2023-01-01T13:58:23;16.63;;;10.83;;
19038;SDS011;9652;49.014;12.052;2023-01-01T14:01:31;17.80;;;10.83;;
19038;SDS011;9652;49.014;12.052;2023-01-01T14:04:11;16.47;;;10.33;;
19038;SDS011;9652;49.014;12.052;2023-01-01T14:06:54;17.50;;;10.93;;
19038;SDS011;9652;49.014;12.052;2023-01-01T14:09:25;18.13;;;10.30;;
19038;SDS011;9652;49.014;12.052;2023-01-01T14:11:52;16.17;;;10.47;;
19038;SDS011;9652;49.014;12.052;2023-01-01T14:14:24;16.10;;;10.77;;
19038;SDS011;9652;49.014;12.052;2023-01-01T14:16:54;17.67;;;11.47;;
19038;SDS011;9652;49.014;12.052;2023-01-01T14:19:25;17.40;;;10.77;;
19038;SDS011;9652;49.014;12.052;2023-01-01T14:21:54;18.27;;;10.57;;
19038;SDS011;9652;49.014;12.052;2023-01-01T14:24:22;17.67;;;11.97;;
19038;SDS011;9652;49.014;12.052;2023-01-01T14:26:53;17.37;;;11.37;;
19038;SDS011;9652;49.014;12.052;2023-01-01T14:29:21;18.03;;;11.80;;
19038;SDS011;9652;49.014;12.052;2023-01-01T14:31:52;15.53;;;10.73;;
19038;SDS011;9652;49.014;12.052;2023-01-01T14:34:24;14.37;;;10.70;;
19038;SDS011;9652;49.014;12.052;2023-01-01T14:36:55;19.17;;;11.53;;
19038;SDS011;9652;49.014;12.052;2023-01-01T14:39:27;17.97;;;10.40;;
19038;SDS011;9652;49.014;12.052;2023-01-01T14:41:57;16.73;;;10.90;;
19038;SDS011;9652;49.014;12.052;2023-01-01T14:44:31;19.17;;;11.40;;
19038;SDS011;9652;49.014;12.052;2023-01-01T14:47:02;17.43;;;10.90;;
19038;SDS011;9652;49.014;12.052;2023-01-01T14:49:31;17.97;;;11.60;;
19038;SDS011;9652;49.014;12.052;2023-01-01T14:52:05;17.77;;;9.97;;
19038;SDS011;9652;49.014;12.052;2023-01-01T14:54:40;15.03;;;9.93;;
19038;SDS011;9652;49.014;12.052;2023-01-01T14:57:10;19.30;;;10.80;;
19038;SDS011;9652;49.014;12.052;2023-01-01T14:59:44;17.53;;;10.80;;
19038;SDS011;9652;49.014;12.052;2023-01-01T15:02:13;16.37;;;10.60;;